createdAt,value
2023-05-15T00:02:26.863Z,15.70
2023-05-15T00:04:54.201Z,15.07
2023-05-15T00:07:21.325Z,14.25
2023-05-15T00:09:48.310Z,15.60
2023-05-15T00:12:15.552Z,14.57
2023-05-15T00:14:42.556Z,15.55
2023-05-15T00:17:09.921Z,15.68
2023-05-15T00:19:36.983Z,15.60
2023-05-15T00:22:04.385Z,15.35
2023-05-15T00:24:31.272Z,14.98
2023-05-15T00:27:00.737Z,16.15
2023-05-15T00:29:28.012Z,16.02
2023-05-15T00:31:55.144Z,15.88
2023-05-15T00:34:25.724Z,15.82
2023-05-15T00:36:52.921Z,15.18
2023-05-15T00:39:19.978Z,15.07
2023-05-15T00:41:51.501Z,15.40
2023-05-15T00:44:22.574Z,15.23
2023-05-15T00:46:51.764Z,14.93
2023-05-15T00:49:21.815Z,15.60
2023-05-15T00:51:50.116Z,15.05
2023-05-15T00:54:17.221Z,15.43
2023-05-15T00:56:46.039Z,15.45
2023-05-15T00:59:13.821Z,14.60
2023-05-15T01:01:41.229Z,14.52
2023-05-15T01:04:11.605Z,14.98
2023-05-15T01:06:38.611Z,13.90
2023-05-15T01:09:08.327Z,14.50
2023-05-15T01:11:38.520Z,14.60
2023-05-15T01:14:08.713Z,14.88
2023-05-15T01:16:36.338Z,15.68
2023-05-15T01:19:05.165Z,14.65
2023-05-15T01:22:10.760Z,14.98
2023-05-15T01:25:10.457Z,15.05
2023-05-15T01:27:50.386Z,15.57
2023-05-15T01:30:24.707Z,15.98
2023-05-15T01:35:49.642Z,15.27
2023-05-15T01:38:34.024Z,15.50
2023-05-15T01:41:51.543Z,15.82
2023-05-15T01:44:36.898Z,16.05
2023-05-15T01:47:13.615Z,16.02
2023-05-15T01:49:45.560Z,16.42
2023-05-15T01:52:30.840Z,17.23
2023-05-15T01:55:00.025Z,16.73
2023-05-15T01:57:31.022Z,15.50
2023-05-15T01:59:59.760Z,15.88
2023-05-15T02:02:29.390Z,15.52
2023-05-15T02:04:58.060Z,16.25
2023-05-15T02:07:26.184Z,15.15
2023-05-15T02:09:54.326Z,15.98
2023-05-15T02:12:23.252Z,15.95
2023-05-15T02:14:52.190Z,15.70
2023-05-15T02:17:22.199Z,16.52
2023-05-15T02:19:50.684Z,16.70
2023-05-15T02:22:17.633Z,15.90
2023-05-15T02:24:45.012Z,16.48
2023-05-15T02:27:28.090Z,16.23
2023-05-15T02:30:20.205Z,16.60
2023-05-15T02:33:23.420Z,15.98
2023-05-15T02:36:04.698Z,17.27
2023-05-15T02:38:40.874Z,16.65
2023-05-15T02:41:09.877Z,16.25
2023-05-15T02:43:39.532Z,16.92
2023-05-15T02:46:08.263Z,17.10
2023-05-15T02:48:41.084Z,17.33
2023-05-15T02:51:08.384Z,17.00
2023-05-15T02:53:43.503Z,17.27
2023-05-15T02:56:10.610Z,16.17
2023-05-15T02:58:39.538Z,17.08
2023-05-15T03:01:06.966Z,17.63
2023-05-15T03:03:34.067Z,17.83
2023-05-15T03:06:01.501Z,17.33
2023-05-15T03:08:28.911Z,18.40
2023-05-15T03:10:55.844Z,17.95
2023-05-15T03:13:22.920Z,18.92
2023-05-15T03:15:49.941Z,18.75
2023-05-15T03:18:19.065Z,17.92
2023-05-15T03:20:49.144Z,19.50
2023-05-15T03:23:16.226Z,18.92
2023-05-15T03:25:43.256Z,18.58
2023-05-15T03:28:10.577Z,18.23
2023-05-15T03:30:37.623Z,20.25
2023-05-15T03:33:05.323Z,18.48
2023-05-15T03:35:32.581Z,19.77
2023-05-15T03:37:59.651Z,19.33
2023-05-15T03:40:26.717Z,19.65
2023-05-15T03:42:53.831Z,20.92
2023-05-15T03:45:21.408Z,20.50
2023-05-15T03:47:49.238Z,22.23
2023-05-15T03:50:16.528Z,22.25
2023-05-15T03:52:43.582Z,21.90
2023-05-15T03:55:10.807Z,21.95
2023-05-15T03:57:37.944Z,23.88
2023-05-15T04:00:10.153Z,24.10
2023-05-15T04:02:41.094Z,25.60
2023-05-15T04:05:09.309Z,24.38
2023-05-15T04:07:38.001Z,23.42
2023-05-15T04:10:05.941Z,22.48
2023-05-15T04:12:35.551Z,22.70
2023-05-15T04:15:24.302Z,23.75
2023-05-15T04:17:53.725Z,23.80
2023-05-15T04:20:24.593Z,24.67
2023-05-15T04:22:52.960Z,24.90
2023-05-15T04:25:20.588Z,25.13
2023-05-15T04:27:47.741Z,25.55
2023-05-15T04:30:17.381Z,24.45
2023-05-15T04:32:44.548Z,24.92
2023-05-15T04:35:13.544Z,23.42
2023-05-15T04:37:45.604Z,23.23
2023-05-15T04:40:14.982Z,23.48
2023-05-15T04:42:42.269Z,22.33
2023-05-15T04:45:09.798Z,22.08
2023-05-15T04:47:40.001Z,21.17
2023-05-15T04:50:07.739Z,22.42
2023-05-15T04:52:34.970Z,20.88
2023-05-15T04:55:02.057Z,21.35
2023-05-15T04:57:30.540Z,21.20
2023-05-15T05:00:00.642Z,22.60
2023-05-15T05:02:31.074Z,20.80
2023-05-15T05:04:58.075Z,19.88
2023-05-15T05:07:25.085Z,20.13
2023-05-15T05:09:52.042Z,18.38
2023-05-15T05:12:19.044Z,18.70
2023-05-15T05:14:46.009Z,19.75
2023-05-15T05:17:13.159Z,17.95
2023-05-15T05:19:40.304Z,18.48
2023-05-15T05:22:07.915Z,18.77
2023-05-15T05:24:38.258Z,17.92
2023-05-15T05:27:05.864Z,19.10
2023-05-15T05:29:32.887Z,17.23
2023-05-15T05:31:59.993Z,17.60
2023-05-15T05:34:27.136Z,18.27
2023-05-15T05:36:54.197Z,17.63
2023-05-15T05:39:21.168Z,19.38
2023-05-15T05:41:48.327Z,19.13
2023-05-15T05:44:15.600Z,19.58
2023-05-15T05:46:42.704Z,19.00
2023-05-15T05:49:09.675Z,18.27
2023-05-15T05:51:39.274Z,18.70
2023-05-15T05:54:06.313Z,18.73
2023-05-15T05:56:33.531Z,18.65
2023-05-15T05:59:02.330Z,18.50
2023-05-15T06:01:29.610Z,17.15
2023-05-15T06:03:57.434Z,18.70
2023-05-15T06:06:24.927Z,18.23
2023-05-15T06:08:52.567Z,19.48
2023-05-15T06:11:23.187Z,20.20
2023-05-15T06:13:51.570Z,17.77
2023-05-15T06:16:18.452Z,18.30
2023-05-15T06:18:45.377Z,20.40
2023-05-15T06:21:12.332Z,21.02
2023-05-15T06:23:39.320Z,21.23
2023-05-15T06:26:06.333Z,21.88
2023-05-15T06:28:33.367Z,21.25
2023-05-15T06:31:00.603Z,21.60
2023-05-15T06:33:27.531Z,21.75
2023-05-15T06:35:54.536Z,22.23
2023-05-15T06:38:21.470Z,22.58
2023-05-15T06:40:48.370Z,22.08
2023-05-15T06:43:15.350Z,21.92
2023-05-15T06:45:42.266Z,20.55
2023-05-15T06:48:09.347Z,21.55
2023-05-15T06:50:36.371Z,22.05
2023-05-15T06:53:03.368Z,22.77
2023-05-15T06:55:30.435Z,24.77
2023-05-15T06:57:57.355Z,25.55
2023-05-15T07:00:24.330Z,26.60
2023-05-15T07:02:51.311Z,25.30
2023-05-15T07:05:18.329Z,26.58
2023-05-15T07:07:45.925Z,24.55
2023-05-15T07:10:13.001Z,24.17
2023-05-15T07:12:39.882Z,23.85
2023-05-15T07:15:07.633Z,22.35
2023-05-15T07:17:34.659Z,22.60
2023-05-15T07:20:01.928Z,22.98
2023-05-15T07:22:29.214Z,23.40
2023-05-15T07:24:56.256Z,22.73
2023-05-15T07:27:23.286Z,21.05
2023-05-15T07:29:50.430Z,22.60
2023-05-15T07:32:17.449Z,21.73
2023-05-15T07:34:44.408Z,20.75
2023-05-15T07:37:11.329Z,22.77
2023-05-15T07:39:38.317Z,23.00
2023-05-15T07:42:05.540Z,20.63
2023-05-15T07:44:32.472Z,21.80
2023-05-15T07:46:59.433Z,22.85
2023-05-15T07:49:26.476Z,20.83
2023-05-15T07:51:53.413Z,20.77
2023-05-15T07:54:20.842Z,21.90
2023-05-15T07:56:47.900Z,21.70
2023-05-15T07:59:15.301Z,22.52
2023-05-15T08:01:42.240Z,20.73
2023-05-15T08:04:09.725Z,21.42
2023-05-15T08:06:39.906Z,21.83
2023-05-15T08:09:06.918Z,19.63
2023-05-15T08:11:34.094Z,21.52
2023-05-15T08:14:01.083Z,21.85
2023-05-15T08:16:29.906Z,18.77
2023-05-15T08:19:01.544Z,20.45
2023-05-15T08:21:29.515Z,20.77
2023-05-15T08:23:57.275Z,21.33
2023-05-15T08:26:24.264Z,23.30
2023-05-15T08:28:51.388Z,23.20
2023-05-15T08:31:18.430Z,24.80
2023-05-15T08:33:45.447Z,25.85
2023-05-15T08:36:12.502Z,24.27
2023-05-15T08:38:39.543Z,22.08
2023-05-15T08:41:39.968Z,23.73
2023-05-15T08:44:11.018Z,25.50
2023-05-15T08:46:38.786Z,22.25
2023-05-15T08:49:18.379Z,23.42
2023-05-15T08:51:45.660Z,24.92
2023-05-15T08:54:12.983Z,25.70
2023-05-15T08:56:40.466Z,23.20
2023-05-15T08:59:07.823Z,23.25
2023-05-15T09:01:36.725Z,22.63
2023-05-15T09:04:04.851Z,22.80
2023-05-15T09:06:33.927Z,23.23
2023-05-15T09:09:02.193Z,22.77
2023-05-15T09:11:31.779Z,21.98
2023-05-15T09:14:00.056Z,23.40
2023-05-15T09:16:27.915Z,21.05
2023-05-15T09:18:54.964Z,20.10
2023-05-15T09:21:31.555Z,20.38
2023-05-15T09:24:37.994Z,21.15
2023-05-15T09:27:07.824Z,18.52
2023-05-15T09:29:38.002Z,19.05
2023-05-15T09:32:08.854Z,17.95
2023-05-15T09:34:42.179Z,19.13
2023-05-15T09:37:13.218Z,17.33
2023-05-15T09:39:44.553Z,16.73
2023-05-15T09:42:15.936Z,14.80
2023-05-15T09:44:44.786Z,15.90
2023-05-15T09:47:17.254Z,15.60
2023-05-15T09:49:45.422Z,14.68
2023-05-15T09:52:12.845Z,13.27
2023-05-15T09:54:39.996Z,12.10
2023-05-15T09:57:10.039Z,14.32
2023-05-15T09:59:47.416Z,13.02
2023-05-15T10:02:24.766Z,14.48
2023-05-15T10:04:56.912Z,14.07
2023-05-15T10:07:31.916Z,14.50
2023-05-15T10:10:00.666Z,14.82
2023-05-15T10:12:29.401Z,15.85
2023-05-15T10:14:58.495Z,17.58
2023-05-15T10:17:32.088Z,14.60
2023-05-15T10:20:02.749Z,14.20
2023-05-15T10:22:32.345Z,14.38
2023-05-15T10:25:33.006Z,15.07
2023-05-15T10:28:01.300Z,14.85
2023-05-15T10:30:31.253Z,15.57
2023-05-15T10:33:00.778Z,16.23
2023-05-15T10:35:28.674Z,16.13
2023-05-15T10:37:57.206Z,15.70
2023-05-15T10:40:24.867Z,16.13
2023-05-15T10:42:55.269Z,17.63
2023-05-15T10:45:22.514Z,17.30
2023-05-15T10:47:52.100Z,19.15
2023-05-15T10:50:20.091Z,17.90
2023-05-15T10:52:51.971Z,16.80
2023-05-15T10:55:19.575Z,17.05
2023-05-15T10:57:49.733Z,15.57
2023-05-15T11:00:22.644Z,15.05
2023-05-15T11:02:53.764Z,13.88
2023-05-15T11:05:21.050Z,13.35
2023-05-15T11:08:17.113Z,13.00
2023-05-15T11:10:44.751Z,12.65
2023-05-15T11:13:12.073Z,13.32
2023-05-15T11:15:45.163Z,13.23
2023-05-15T11:18:12.688Z,14.18
2023-05-15T11:20:43.380Z,15.13
2023-05-15T11:23:10.380Z,15.88
2023-05-15T11:25:37.502Z,15.82
2023-05-15T11:28:05.489Z,15.07
2023-05-15T11:30:40.230Z,16.38
2023-05-15T11:33:11.270Z,16.48
2023-05-15T11:35:47.625Z,17.23
2023-05-15T11:38:24.498Z,17.13
2023-05-15T11:40:55.012Z,16.85
2023-05-15T11:43:28.918Z,19.23
2023-05-15T11:46:04.219Z,16.20
2023-05-15T11:48:34.596Z,17.75
2023-05-15T11:51:02.584Z,17.17
2023-05-15T11:53:31.248Z,17.23
2023-05-15T11:55:59.113Z,18.95
2023-05-15T11:58:26.860Z,19.00
2023-05-15T12:00:54.465Z,18.63
2023-05-15T12:03:26.548Z,17.98
2023-05-15T12:05:59.480Z,17.80
2023-05-15T12:08:32.852Z,18.00
2023-05-15T12:11:01.472Z,17.13
2023-05-15T12:13:29.481Z,17.67
2023-05-15T12:15:57.078Z,16.63
2023-05-15T12:18:24.539Z,18.25
2023-05-15T12:20:53.370Z,17.23
2023-05-15T12:23:26.831Z,17.25
2023-05-15T12:26:01.430Z,16.75
2023-05-15T12:28:30.613Z,16.73
2023-05-15T12:30:59.413Z,17.00
2023-05-15T12:33:26.845Z,16.90
2023-05-15T12:36:00.260Z,16.83
2023-05-15T12:38:29.004Z,18.40
2023-05-15T12:40:57.213Z,17.00
2023-05-15T12:43:26.087Z,16.48
2023-05-15T12:45:57.214Z,16.80
2023-05-15T12:48:32.070Z,17.77
2023-05-15T12:51:09.005Z,18.52
2023-05-15T12:53:39.506Z,17.88
2023-05-15T12:56:09.030Z,19.05
2023-05-15T12:58:37.433Z,18.92
2023-05-15T13:01:04.634Z,19.08
2023-05-15T13:03:32.426Z,19.55
2023-05-15T13:06:02.354Z,19.55
2023-05-15T13:08:29.390Z,19.27
2023-05-15T13:10:58.736Z,18.75
2023-05-15T13:13:48.835Z,19.85
2023-05-15T13:16:21.316Z,19.75
2023-05-15T13:18:48.580Z,20.98
2023-05-15T13:21:15.682Z,19.77
2023-05-15T13:23:42.716Z,18.80
2023-05-15T13:26:09.765Z,18.80
2023-05-15T13:28:36.729Z,20.38
2023-05-15T13:31:03.728Z,20.88
2023-05-15T13:33:32.078Z,18.70
2023-05-15T13:35:59.480Z,20.58
2023-05-15T13:38:26.419Z,18.95
2023-05-15T13:40:53.372Z,18.00
2023-05-15T13:43:20.302Z,18.85
2023-05-15T13:45:47.256Z,16.83
2023-05-15T13:48:14.222Z,17.77
2023-05-15T13:50:43.177Z,17.02
2023-05-15T13:53:10.215Z,15.63
2023-05-15T13:55:37.164Z,16.73
2023-05-15T13:58:04.286Z,16.40
2023-05-15T14:00:31.286Z,15.40
2023-05-15T14:02:58.385Z,16.92
2023-05-15T14:05:25.418Z,16.95
2023-05-15T14:07:52.298Z,18.85
2023-05-15T14:10:19.283Z,17.48
2023-05-15T14:12:47.016Z,19.35
2023-05-15T14:15:13.956Z,18.13
2023-05-15T14:17:41.272Z,18.02
2023-05-15T14:20:10.156Z,18.67
2023-05-15T14:22:38.594Z,19.70
2023-05-15T14:25:06.438Z,20.05
2023-05-15T14:27:33.428Z,20.80
2023-05-15T14:30:01.100Z,21.90
2023-05-15T14:32:28.075Z,20.25
2023-05-15T14:34:59.656Z,19.70
2023-05-15T14:37:27.757Z,19.13
2023-05-15T14:39:54.762Z,21.20
2023-05-15T14:42:21.970Z,20.25
2023-05-15T14:44:49.697Z,21.60
2023-05-15T14:47:16.856Z,19.73
2023-05-15T14:49:43.994Z,16.55
2023-05-15T14:52:12.481Z,17.20
2023-05-15T14:54:40.151Z,15.73
2023-05-15T14:57:07.791Z,15.75
2023-05-15T14:59:34.929Z,15.40
2023-05-15T15:02:02.327Z,14.90
2023-05-15T15:04:34.224Z,13.07
2023-05-15T15:07:04.872Z,11.82
2023-05-15T15:09:32.179Z,10.48
2023-05-15T15:11:59.498Z,9.18
2023-05-15T15:14:26.568Z,8.30
2023-05-15T15:16:53.633Z,7.97
2023-05-15T15:19:20.769Z,8.27
2023-05-15T15:21:48.353Z,7.38
2023-05-15T15:24:16.954Z,7.57
2023-05-15T15:26:43.912Z,8.43
2023-05-15T15:29:10.858Z,8.10
2023-05-15T15:31:37.845Z,8.02
2023-05-15T15:34:05.699Z,9.63
2023-05-15T15:36:33.123Z,8.48
2023-05-15T15:39:00.138Z,8.63
2023-05-15T15:41:30.370Z,8.75
2023-05-15T15:43:57.274Z,8.57
2023-05-15T15:46:24.405Z,8.35
2023-05-15T15:48:51.446Z,8.20
2023-05-15T15:51:18.433Z,8.60
2023-05-15T15:53:45.487Z,7.57
2023-05-15T15:56:12.492Z,6.03
2023-05-15T15:58:39.491Z,6.05
2023-05-15T16:01:06.454Z,6.20
2023-05-15T16:04:03.285Z,5.97
2023-05-15T16:06:31.057Z,5.97
2023-05-15T16:08:58.015Z,5.43
2023-05-15T16:11:25.086Z,5.50
2023-05-15T16:13:52.701Z,4.75
2023-05-15T16:16:19.984Z,5.20
2023-05-15T16:18:47.556Z,5.20
2023-05-15T16:21:14.701Z,5.43
2023-05-15T16:23:41.709Z,4.88
2023-05-15T16:26:11.246Z,5.60
2023-05-15T16:28:38.218Z,4.97
2023-05-15T16:31:07.966Z,4.90
2023-05-15T16:33:35.268Z,4.43
2023-05-15T16:36:05.045Z,4.63
2023-05-15T16:38:32.408Z,4.57
2023-05-15T16:40:59.355Z,4.47
2023-05-15T16:43:26.439Z,3.85
2023-05-15T16:45:53.393Z,4.43
2023-05-15T16:48:20.420Z,4.10
2023-05-15T16:50:47.340Z,3.83
2023-05-15T16:53:15.195Z,4.28
2023-05-15T16:55:42.155Z,4.18
2023-05-15T16:58:09.195Z,3.50
2023-05-15T17:00:36.281Z,3.60
2023-05-15T17:03:05.742Z,3.28
2023-05-15T17:05:34.043Z,3.80
2023-05-15T17:08:01.158Z,2.55
2023-05-15T17:10:28.746Z,2.53
2023-05-15T17:12:55.898Z,2.45
2023-05-15T17:15:23.917Z,2.78
2023-05-15T17:17:51.054Z,2.40
2023-05-15T17:20:18.094Z,2.40
2023-05-15T17:22:45.063Z,2.97
2023-05-15T17:25:12.016Z,2.03
2023-05-15T17:27:41.286Z,2.58
2023-05-15T17:30:10.406Z,2.40
2023-05-15T17:32:39.174Z,2.38
2023-05-15T17:35:08.080Z,2.47
2023-05-15T17:37:35.044Z,3.08
2023-05-15T17:40:02.076Z,2.83
2023-05-15T17:42:29.084Z,3.15
2023-05-15T17:44:56.819Z,2.70
2023-05-15T17:47:24.029Z,2.90
2023-05-15T17:49:51.117Z,2.92
2023-05-15T17:52:18.106Z,3.22
2023-05-15T17:54:45.033Z,3.45
2023-05-15T17:57:12.023Z,3.20
2023-05-15T17:59:39.007Z,2.97
2023-05-15T18:02:06.809Z,3.50
2023-05-15T18:04:33.865Z,3.10
2023-05-15T18:07:00.876Z,3.85
2023-05-15T18:09:28.011Z,3.50
2023-05-15T18:11:55.005Z,3.40
2023-05-15T18:14:22.045Z,3.38
2023-05-15T18:16:49.034Z,3.15
2023-05-15T18:19:16.188Z,3.55
2023-05-15T18:21:43.510Z,3.78
2023-05-15T18:24:10.525Z,3.78
2023-05-15T18:26:38.005Z,4.13
2023-05-15T18:29:05.031Z,3.75
2023-05-15T18:31:32.217Z,4.35
2023-05-15T18:34:00.956Z,3.80
2023-05-15T18:36:28.023Z,4.53
2023-05-15T18:38:54.997Z,4.60
2023-05-15T18:41:23.049Z,4.53
2023-05-15T18:43:50.077Z,3.70
2023-05-15T18:46:17.310Z,4.03
2023-05-15T18:48:44.377Z,3.72
2023-05-15T18:51:11.390Z,3.72
2023-05-15T18:53:38.401Z,3.80
2023-05-15T18:56:05.597Z,4.30
2023-05-15T18:58:32.548Z,3.70
2023-05-15T19:01:00.118Z,4.22
2023-05-15T19:03:27.281Z,4.00
2023-05-15T19:05:54.190Z,3.88
2023-05-15T19:08:21.171Z,4.20
2023-05-15T19:10:48.835Z,4.50
2023-05-15T19:13:15.799Z,4.38
2023-05-15T19:15:53.811Z,4.10
2023-05-15T19:18:20.856Z,4.57
2023-05-15T19:20:52.074Z,4.40
2023-05-15T19:23:20.660Z,4.43
2023-05-15T19:25:48.053Z,4.60
2023-05-15T19:28:15.083Z,5.03
2023-05-15T19:30:42.647Z,4.80
2023-05-15T19:33:09.613Z,4.40
2023-05-15T19:35:37.717Z,4.50
2023-05-15T19:38:05.011Z,4.50
2023-05-15T19:40:31.934Z,4.60
2023-05-15T19:42:58.878Z,4.55
2023-05-15T19:45:25.875Z,4.15
2023-05-15T19:47:53.111Z,4.18
2023-05-15T19:50:20.381Z,3.47
2023-05-15T19:52:47.560Z,2.63
2023-05-15T19:55:14.603Z,2.40
2023-05-15T19:57:44.787Z,2.72
2023-05-15T20:00:12.947Z,2.10
2023-05-15T20:02:41.341Z,2.35
2023-05-15T20:05:09.337Z,2.08
2023-05-15T20:07:36.995Z,2.20
2023-05-15T20:10:05.198Z,2.20
2023-05-15T20:12:32.242Z,2.58
2023-05-15T20:14:59.390Z,2.70
2023-05-15T20:17:27.040Z,2.05
2023-05-15T20:19:54.036Z,2.58
2023-05-15T20:22:20.955Z,2.10
2023-05-15T20:24:48.170Z,2.30
2023-05-15T20:27:15.302Z,2.50
2023-05-15T20:29:42.313Z,2.10
2023-05-15T20:32:09.413Z,2.10
2023-05-15T20:34:36.915Z,1.75
2023-05-15T20:37:03.929Z,1.75
2023-05-15T20:39:31.078Z,1.80
2023-05-15T20:42:00.616Z,1.73
2023-05-15T20:44:27.592Z,1.60
2023-05-15T20:46:54.549Z,2.15
2023-05-15T20:49:21.586Z,2.30
2023-05-15T20:51:48.781Z,2.33
2023-05-15T20:54:16.152Z,1.92
2023-05-15T20:56:43.188Z,1.85
2023-05-15T20:59:11.389Z,2.50
2023-05-15T21:01:39.102Z,2.10
2023-05-15T21:04:06.365Z,2.28
2023-05-15T21:06:33.553Z,2.05
2023-05-15T21:09:00.672Z,2.45
2023-05-15T21:11:28.473Z,1.92
2023-05-15T21:13:55.376Z,1.70
2023-05-15T21:16:22.374Z,2.08
2023-05-15T21:18:49.374Z,2.22
2023-05-15T21:21:16.535Z,2.00
2023-05-15T21:23:43.612Z,1.65
2023-05-15T21:26:10.977Z,1.80
2023-05-15T21:28:38.101Z,1.90
2023-05-15T21:31:09.755Z,1.48
2023-05-15T21:33:37.714Z,1.05
2023-05-15T21:36:05.217Z,1.75
2023-05-15T21:38:32.659Z,1.23
2023-05-15T21:41:01.161Z,0.90
2023-05-15T21:43:28.130Z,1.00
2023-05-15T21:45:56.619Z,1.00
2023-05-15T21:48:23.648Z,1.30
2023-05-15T21:50:50.744Z,1.35
2023-05-15T21:53:17.710Z,1.13
2023-05-15T21:55:44.782Z,0.88
2023-05-15T21:58:11.805Z,1.17
2023-05-15T22:00:40.266Z,1.10
2023-05-15T22:03:07.685Z,0.90
2023-05-15T22:05:34.804Z,1.15
2023-05-15T22:08:01.822Z,1.15
2023-05-15T22:10:29.015Z,0.90
2023-05-15T22:12:59.095Z,0.90
2023-05-15T22:15:26.072Z,1.08
2023-05-15T22:17:54.045Z,0.88
2023-05-15T22:20:21.357Z,1.02
2023-05-15T22:22:48.377Z,1.10
2023-05-15T22:25:15.393Z,1.05
2023-05-15T22:27:42.616Z,1.10
2023-05-15T22:30:09.958Z,1.15
2023-05-15T22:32:38.929Z,1.20
2023-05-15T22:35:08.244Z,1.98
2023-05-15T22:37:35.739Z,1.38
2023-05-15T22:40:03.886Z,1.52
2023-05-15T22:42:30.840Z,1.58
2023-05-15T22:44:57.925Z,1.27
2023-05-15T22:47:26.500Z,1.38
2023-05-15T22:49:53.789Z,1.35
2023-05-15T22:52:20.994Z,1.40
2023-05-15T22:54:57.217Z,1.75
2023-05-15T22:57:44.135Z,1.67
2023-05-15T23:00:12.773Z,1.30
2023-05-15T23:02:42.610Z,1.50
2023-05-15T23:05:11.312Z,1.42
2023-05-15T23:07:44.008Z,1.70
2023-05-15T23:10:29.771Z,1.45
2023-05-15T23:12:56.888Z,1.70
2023-05-15T23:15:25.000Z,1.67
2023-05-15T23:17:52.060Z,1.85
2023-05-15T23:20:19.563Z,2.03
2023-05-15T23:22:46.479Z,1.92
2023-05-15T23:25:13.449Z,1.98
2023-05-15T23:27:40.581Z,2.47
2023-05-15T23:30:08.582Z,2.25
2023-05-15T23:32:35.828Z,2.25
2023-05-15T23:35:03.133Z,2.53
2023-05-15T23:37:30.192Z,2.53
2023-05-15T23:39:57.188Z,2.50
2023-05-15T23:42:24.156Z,2.33
2023-05-15T23:44:51.180Z,2.17
2023-05-15T23:47:18.222Z,2.40
2023-05-15T23:49:45.269Z,2.63
2023-05-15T23:52:12.248Z,2.42
2023-05-15T23:54:40.083Z,2.58
2023-05-15T23:57:07.079Z,2.20
2023-05-15T23:59:34.028Z,2.38
